createdAt,value
2018-02-03T00:00:00.073Z,784.12
2018-02-03T00:00:04.294Z,784.1
2018-02-03T00:00:08.187Z,784.11
2018-02-03T00:00:12.079Z,784.18
2018-02-03T00:00:15.969Z,784.2
2018-02-03T00:00:20.072Z,784.16
2018-02-03T00:00:23.859Z,784.17
2018-02-03T00:00:27.751Z,784.17
2018-02-03T00:00:31.761Z,784.14
2018-02-03T00:00:35.864Z,784.14
2018-02-03T00:00:39.757Z,784.19
2018-02-03T00:00:43.644Z,784.13
2018-02-03T00:00:47.541Z,784.18
2018-02-03T00:00:51.335Z,784.16
2018-02-03T00:00:55.233Z,784.15
2018-02-03T00:00:59.018Z,784.19
2018-02-03T00:01:03.275Z,784.11
2018-02-03T00:01:07.063Z,784.16
2018-02-03T00:01:11.165Z,784.14
2018-02-03T00:01:15.061Z,784.16
2018-02-03T00:01:19.271Z,784.19
2018-02-03T00:01:23.283Z,784.14
2018-02-03T00:01:27.278Z,784.15
2018-02-03T00:01:31.170Z,784.17
2018-02-03T00:01:35.386Z,784.13
2018-02-03T00:01:39.285Z,784.14
2018-02-03T00:01:43.281Z,784.15
2018-02-03T00:01:47.285Z,784.13
2018-02-03T00:01:50.970Z,784.12
2018-02-03T00:01:54.768Z,784.11
2018-02-03T00:01:58.769Z,784.11
2018-02-03T00:02:02.566Z,784.13
2018-02-03T00:02:06.571Z,784.13
2018-02-03T00:02:10.675Z,784.15
2018-02-03T00:02:14.578Z,784.14
2018-02-03T00:02:18.572Z,784.14
2018-02-03T00:02:22.792Z,784.17
2018-02-03T00:02:26.690Z,784.13
2018-02-03T00:02:30.797Z,784.13
2018-02-03T00:02:34.904Z,784.07
2018-02-03T00:02:38.901Z,784.09
2018-02-03T00:02:42.904Z,784.14
2018-02-03T00:02:46.907Z,784.14
2018-02-03T00:02:50.697Z,784.12
2018-02-03T00:02:54.594Z,784.16
2018-02-03T00:02:58.700Z,784.17
2018-02-03T00:03:02.909Z,784.15
2018-02-03T00:03:06.696Z,784.14
2018-02-03T00:03:10.711Z,784.15
2018-02-03T00:03:14.606Z,784.16
2018-02-03T00:03:18.606Z,784.16
2018-02-03T00:03:22.836Z,784.15
2018-02-03T00:03:27.212Z,784.18
2018-02-03T00:03:30.951Z,784.15
2018-02-03T00:03:34.844Z,784.16
2018-02-03T00:03:38.732Z,784.13
2018-02-03T00:03:42.725Z,784.17
2018-02-03T00:03:46.620Z,784.16
2018-02-03T00:03:50.727Z,784.2
2018-02-03T00:03:54.621Z,784.2
2018-02-03T00:03:58.522Z,784.19
2018-02-03T00:04:02.735Z,784.18
2018-02-03T00:04:06.637Z,784.17
2018-02-03T00:04:10.423Z,784.17
2018-02-03T00:04:14.531Z,784.17
2018-02-03T00:04:18.534Z,784.18
2018-02-03T00:04:22.642Z,784.17
2018-02-03T00:04:26.537Z,784.16
2018-02-03T00:04:30.639Z,784.16
2018-02-03T00:04:34.432Z,784.16
2018-02-03T00:04:38.674Z,784.18
2018-02-03T00:04:42.432Z,784.19
2018-02-03T00:04:46.225Z,784.19
2018-02-03T00:04:50.123Z,784.17
2018-02-03T00:04:54.125Z,784.17
2018-02-03T00:04:58.020Z,784.19
2018-02-03T00:05:02.024Z,784.16
2018-02-03T00:05:05.705Z,784.17
2018-02-03T00:05:09.501Z,784.15
2018-02-03T00:05:13.395Z,784.16
2018-02-03T00:05:17.505Z,784.17
2018-02-03T00:05:21.402Z,784.14
2018-02-03T00:05:25.185Z,784.14
2018-02-03T00:05:29.182Z,784.16
2018-02-03T00:05:33.075Z,784.17
2018-02-03T00:05:36.973Z,784.18
2018-02-03T00:05:40.873Z,784.16
2018-02-03T00:05:44.664Z,784.17
2018-02-03T00:05:48.667Z,784.19
2018-02-03T00:05:52.779Z,784.2
2018-02-03T00:05:56.804Z,784.17
2018-02-03T00:06:00.596Z,784.17
2018-02-03T00:06:04.595Z,784.2
2018-02-03T00:06:08.496Z,784.21
2018-02-03T00:06:12.281Z,784.18
2018-02-03T00:06:16.282Z,784.17
2018-02-03T00:06:20.392Z,784.2
2018-02-03T00:06:24.401Z,784.2
2018-02-03T00:06:28.196Z,784.21
2018-02-03T00:06:32.094Z,784.18
2018-02-03T00:06:35.985Z,784.18
2018-02-03T00:06:40.246Z,784.18
2018-02-03T00:06:44.032Z,784.22
2018-02-03T00:06:47.929Z,784.17
2018-02-03T00:06:51.875Z,784.21
2018-02-03T00:06:55.977Z,784.18
2018-02-03T00:06:59.763Z,784.19
2018-02-03T00:07:03.758Z,784.19
2018-02-03T00:07:07.768Z,784.18
2018-02-03T00:07:11.669Z,784.14
2018-02-03T00:07:15.884Z,784.15
2018-02-03T00:07:19.988Z,784.18
2018-02-03T00:07:23.987Z,784.15
2018-02-03T00:07:28.005Z,784.12
2018-02-03T00:07:32.108Z,784.14
2018-02-03T00:07:36.208Z,784.13
2018-02-03T00:07:40.209Z,784.17
2018-02-03T00:07:44.108Z,784.16
2018-02-03T00:07:48.006Z,784.15
2018-02-03T00:07:51.795Z,784.14
2018-02-03T00:07:55.796Z,784.15
2018-02-03T00:07:59.484Z,784.17
2018-02-03T00:08:03.793Z,784.12
2018-02-03T00:08:07.686Z,784.13
2018-02-03T00:08:11.376Z,784.13
2018-02-03T00:08:15.274Z,784.13
2018-02-03T00:08:19.388Z,784.15
2018-02-03T00:08:23.179Z,784.16
2018-02-03T00:08:26.976Z,784.17
2018-02-03T00:08:30.976Z,784.16
2018-02-03T00:08:34.973Z,784.18
2018-02-03T00:08:38.658Z,784.18
2018-02-03T00:08:42.553Z,784.17
2018-02-03T00:08:46.445Z,784.17
2018-02-03T00:08:50.129Z,784.17
2018-02-03T00:08:53.921Z,784.17
2018-02-03T00:08:57.976Z,784.18
2018-02-03T00:09:02.065Z,784.17
2018-02-03T00:09:05.752Z,784.16
2018-02-03T00:09:09.443Z,784.17
2018-02-03T00:09:13.345Z,784.17
2018-02-03T00:09:17.230Z,784.17
2018-02-03T00:09:21.439Z,784.18
2018-02-03T00:09:25.340Z,784.15
2018-02-03T00:09:29.237Z,784.19
2018-02-03T00:09:33.134Z,784.13
2018-02-03T00:09:37.032Z,784.18
2018-02-03T00:09:40.929Z,784.17
2018-02-03T00:09:44.719Z,784.16
2018-02-03T00:09:48.506Z,784.16
2018-02-03T00:09:52.189Z,784.17
2018-02-03T00:09:55.876Z,784.16
2018-02-03T00:09:59.665Z,784.18
2018-02-03T00:10:03.967Z,784.19
2018-02-03T00:10:08.068Z,784.16
2018-02-03T00:10:11.960Z,784.18
2018-02-03T00:10:16.065Z,784.18
2018-02-03T00:10:20.152Z,784.15
2018-02-03T00:10:24.700Z,784.17
2018-02-03T00:10:28.603Z,784.15
2018-02-03T00:10:32.816Z,784.14
2018-02-03T00:10:36.609Z,784.16
2018-02-03T00:10:40.293Z,784.14
2018-02-03T00:10:44.296Z,784.15
2018-02-03T00:10:48.186Z,784.16
2018-02-03T00:10:52.294Z,784.14
2018-02-03T00:10:56.403Z,784.13
2018-02-03T00:11:00.303Z,784.14
2018-02-03T00:11:04.198Z,784.12
2018-02-03T00:11:08.192Z,784.13
2018-02-03T00:11:12.193Z,784.15
2018-02-03T00:11:16.300Z,784.14
2018-02-03T00:11:20.302Z,784.16
2018-02-03T00:11:24.402Z,784.14
2018-02-03T00:11:28.191Z,784.15
2018-02-03T00:11:31.973Z,784.14
2018-02-03T00:11:35.869Z,784.14
2018-02-03T00:11:39.553Z,784.14
2018-02-03T00:11:43.341Z,784.13
2018-02-03T00:11:47.023Z,784.13
2018-02-03T00:11:51.077Z,784.14
2018-02-03T00:11:54.974Z,784.13
2018-02-03T00:11:59.078Z,784.12
2018-02-03T00:12:03.291Z,784.14
2018-02-03T00:12:07.182Z,784.14
2018-02-03T00:12:11.077Z,784.16
2018-02-03T00:12:15.077Z,784.18
2018-02-03T00:12:18.974Z,784.19
2018-02-03T00:12:22.871Z,784.15
2018-02-03T00:12:26.770Z,784.12
2018-02-03T00:12:30.772Z,784.13
2018-02-03T00:12:34.664Z,784.13
2018-02-03T00:12:38.551Z,784.18
2018-02-03T00:12:42.549Z,784.17
2018-02-03T00:12:46.444Z,784.16
2018-02-03T00:12:50.544Z,784.16
2018-02-03T00:12:54.331Z,784.16
2018-02-03T00:12:58.228Z,784.17
2018-02-03T00:13:02.372Z,784.14
2018-02-03T00:13:06.376Z,784.14
2018-02-03T00:13:10.266Z,784.13
2018-02-03T00:13:14.486Z,784.1
2018-02-03T00:13:18.491Z,784.12
2018-02-03T00:13:22.385Z,784.12
2018-02-03T00:13:26.504Z,784.1
2018-02-03T00:13:30.502Z,784.12
2018-02-03T00:13:34.502Z,784.13
2018-02-03T00:13:38.393Z,784.09
2018-02-03T00:13:42.288Z,784.11
2018-02-03T00:13:46.076Z,784.13
2018-02-03T00:13:49.966Z,784.15
2018-02-03T00:13:53.875Z,784.13
2018-02-03T00:13:57.988Z,784.1
2018-02-03T00:14:01.978Z,784.11
2018-02-03T00:14:06.082Z,784.11
2018-02-03T00:14:09.874Z,784.08
2018-02-03T00:14:13.660Z,784.11
2018-02-03T00:14:17.451Z,784.1
2018-02-03T00:14:21.357Z,784.07
2018-02-03T00:14:25.420Z,784.09
2018-02-03T00:14:29.624Z,784.08
2018-02-03T00:14:33.724Z,784.1
2018-02-03T00:14:37.725Z,784.07
2018-02-03T00:14:41.515Z,784.07
2018-02-03T00:14:45.412Z,784.08
2018-02-03T00:14:49.306Z,784.06
2018-02-03T00:14:53.246Z,784.1
2018-02-03T00:14:57.246Z,784.08
2018-02-03T00:15:01.249Z,784.07
2018-02-03T00:15:05.198Z,784.01
2018-02-03T00:15:08.988Z,784.05
2018-02-03T00:15:13.094Z,784
2018-02-03T00:15:16.884Z,784.03
2018-02-03T00:15:20.986Z,784
2018-02-03T00:15:24.983Z,784.08
2018-02-03T00:15:28.776Z,784.04
2018-02-03T00:15:32.567Z,784.05
2018-02-03T00:15:36.565Z,784.05
2018-02-03T00:15:40.771Z,784.03
2018-02-03T00:15:44.565Z,784.02
2018-02-03T00:15:48.457Z,784.03
2018-02-03T00:15:52.348Z,784.03
2018-02-03T00:15:56.033Z,784.04
2018-02-03T00:15:59.929Z,784.02
2018-02-03T00:16:03.828Z,784.05
2018-02-03T00:16:07.946Z,784.07
2018-02-03T00:16:11.742Z,784.07
2018-02-03T00:16:15.638Z,784.02
2018-02-03T00:16:19.751Z,784.04
2018-02-03T00:16:23.645Z,784.04
2018-02-03T00:16:27.759Z,784.04
2018-02-03T00:16:31.658Z,784
2018-02-03T00:16:35.652Z,784.01
2018-02-03T00:16:39.647Z,784.02
2018-02-03T00:16:43.964Z,784.02
2018-02-03T00:16:47.969Z,784.02
2018-02-03T00:16:52.071Z,784.02
2018-02-03T00:16:56.072Z,784
2018-02-03T00:16:59.859Z,784.02
2018-02-03T00:17:03.999Z,784.02
2018-02-03T00:17:08.116Z,784.04
2018-02-03T00:17:12.015Z,784.02
2018-02-03T00:17:16.117Z,784.03
2018-02-03T00:17:20.331Z,784.01
2018-02-03T00:17:24.122Z,784.01
2018-02-03T00:17:28.121Z,784.03
2018-02-03T00:17:32.018Z,783.98
2018-02-03T00:17:35.919Z,784
2018-02-03T00:17:39.816Z,784
2018-02-03T00:17:43.608Z,783.99
2018-02-03T00:17:47.610Z,783.98
2018-02-03T00:17:51.505Z,784
2018-02-03T00:17:55.515Z,783.95
2018-02-03T00:17:59.620Z,783.94
2018-02-03T00:18:03.621Z,783.96
2018-02-03T00:18:07.419Z,783.93
2018-02-03T00:18:11.524Z,783.95
2018-02-03T00:18:15.422Z,783.95
2018-02-03T00:18:19.317Z,783.93
2018-02-03T00:18:23.425Z,783.94
2018-02-03T00:18:27.320Z,783.99
2018-02-03T00:18:31.110Z,783.95
2018-02-03T00:18:35.108Z,783.97
2018-02-03T00:18:38.896Z,783.97
2018-02-03T00:18:42.795Z,783.98
2018-02-03T00:18:46.795Z,783.91
2018-02-03T00:18:50.589Z,783.9
2018-02-03T00:18:54.482Z,783.89
2018-02-03T00:18:58.693Z,783.89
2018-02-03T00:19:02.760Z,783.9
2018-02-03T00:19:06.766Z,783.9
2018-02-03T00:19:10.661Z,783.94
2018-02-03T00:19:14.553Z,783.9
2018-02-03T00:19:18.552Z,783.95
2018-02-03T00:19:22.340Z,783.93
2018-02-03T00:19:26.339Z,783.89
2018-02-03T00:19:30.233Z,783.92
2018-02-03T00:19:34.124Z,783.92
2018-02-03T00:19:37.909Z,783.94
2018-02-03T00:19:41.702Z,783.93
2018-02-03T00:19:45.707Z,783.88
2018-02-03T00:19:49.597Z,783.93
2018-02-03T00:19:53.494Z,783.94
2018-02-03T00:19:57.497Z,783.93
2018-02-03T00:20:01.512Z,783.92
2018-02-03T00:20:05.518Z,783.94
2018-02-03T00:20:09.622Z,783.93
2018-02-03T00:20:13.513Z,783.95
2018-02-03T00:20:17.408Z,783.91
2018-02-03T00:20:21.305Z,783.93
2018-02-03T00:20:25.200Z,783.9
2018-02-03T00:20:29.354Z,783.93
2018-02-03T00:20:33.460Z,783.92
2018-02-03T00:20:37.561Z,783.92
2018-02-03T00:20:41.251Z,783.92
2018-02-03T00:20:45.358Z,783.89
2018-02-03T00:20:49.464Z,783.9
2018-02-03T00:20:53.363Z,783.87
2018-02-03T00:20:57.156Z,783.94
2018-02-03T00:21:01.375Z,783.94
2018-02-03T00:21:05.060Z,783.92
2018-02-03T00:21:09.208Z,783.95
2018-02-03T00:21:13.104Z,783.94
2018-02-03T00:21:17.100Z,783.87
2018-02-03T00:21:20.892Z,783.9
2018-02-03T00:21:24.781Z,783.87
2018-02-03T00:21:28.782Z,783.89
2018-02-03T00:21:32.677Z,783.94
2018-02-03T00:21:36.777Z,783.9
2018-02-03T00:21:40.776Z,783.92
2018-02-03T00:21:44.888Z,783.92
2018-02-03T00:21:48.675Z,783.92
2018-02-03T00:21:52.358Z,783.92
2018-02-03T00:21:56.147Z,783.9
2018-02-03T00:22:00.043Z,783.93
2018-02-03T00:22:04.410Z,783.95
2018-02-03T00:22:08.513Z,783.89
2018-02-03T00:22:12.308Z,783.92
2018-02-03T00:22:16.198Z,783.9
2018-02-03T00:22:20.097Z,783.91
2018-02-03T00:22:23.883Z,783.9
2018-02-03T00:22:27.886Z,783.91
2018-02-03T00:22:31.786Z,783.93
2018-02-03T00:22:35.787Z,783.92
2018-02-03T00:22:39.674Z,783.92
2018-02-03T00:22:43.457Z,783.91
2018-02-03T00:22:47.558Z,783.91
2018-02-03T00:22:51.456Z,783.9
2018-02-03T00:22:55.458Z,783.93
2018-02-03T00:22:59.347Z,783.94
2018-02-03T00:23:03.447Z,783.91
2018-02-03T00:23:07.337Z,783.9
2018-02-03T00:23:11.335Z,783.91
2018-02-03T00:23:15.547Z,783.91
2018-02-03T00:23:19.442Z,783.89
2018-02-03T00:23:23.442Z,783.94
2018-02-03T00:23:27.540Z,783.95
2018-02-03T00:23:31.327Z,783.92
2018-02-03T00:23:35.429Z,783.91
2018-02-03T00:23:39.431Z,783.95
2018-02-03T00:23:43.322Z,783.87
2018-02-03T00:23:47.333Z,783.89
2018-02-03T00:23:51.226Z,783.87
2018-02-03T00:23:55.118Z,783.87
2018-02-03T00:23:59.116Z,783.9
2018-02-03T00:24:03.213Z,783.92
2018-02-03T00:24:07.218Z,783.89
2018-02-03T00:24:11.324Z,783.87
2018-02-03T00:24:15.113Z,783.91
2018-02-03T00:24:19.107Z,783.88
2018-02-03T00:24:22.900Z,783.89
2018-02-03T00:24:26.798Z,783.9
2018-02-03T00:24:30.692Z,783.87
2018-02-03T00:24:34.585Z,783.86
2018-02-03T00:24:38.270Z,783.88
2018-02-03T00:24:42.166Z,783.91
2018-02-03T00:24:46.053Z,783.86
2018-02-03T00:24:50.163Z,783.86
2018-02-03T00:24:54.159Z,783.86
2018-02-03T00:24:58.159Z,783.88
2018-02-03T00:25:02.469Z,783.83
2018-02-03T00:25:06.252Z,783.83
2018-02-03T00:25:10.144Z,783.87
2018-02-03T00:25:14.036Z,783.86
2018-02-03T00:25:18.033Z,783.86
2018-02-03T00:25:22.140Z,783.81
2018-02-03T00:25:26.039Z,783.86
2018-02-03T00:25:29.937Z,783.82
2018-02-03T00:25:33.835Z,783.86
2018-02-03T00:25:37.781Z,783.84
2018-02-03T00:25:41.569Z,783.84
2018-02-03T00:25:45.360Z,783.84
2018-02-03T00:25:49.261Z,783.77
2018-02-03T00:25:53.363Z,783.79
2018-02-03T00:25:57.148Z,783.82
2018-02-03T00:26:01.250Z,783.79
2018-02-03T00:26:05.254Z,783.8
2018-02-03T00:26:09.149Z,783.85
2018-02-03T00:26:13.267Z,783.79
2018-02-03T00:26:17.164Z,783.83
2018-02-03T00:26:20.949Z,783.84
2018-02-03T00:26:24.942Z,783.85
2018-02-03T00:26:28.841Z,783.85
2018-02-03T00:26:32.630Z,783.86
2018-02-03T00:26:36.420Z,783.87
2018-02-03T00:26:40.736Z,783.87
2018-02-03T00:26:44.524Z,783.86
2018-02-03T00:26:48.315Z,783.88
2018-02-03T00:26:52.210Z,783.85
2018-02-03T00:26:56.108Z,783.87
2018-02-03T00:26:59.896Z,783.85
2018-02-03T00:27:03.940Z,783.84
2018-02-03T00:27:07.623Z,783.85
2018-02-03T00:27:11.628Z,783.87
2018-02-03T00:27:15.524Z,783.84
2018-02-03T00:27:19.312Z,783.86
2018-02-03T00:27:23.102Z,783.89
2018-02-03T00:27:27.108Z,783.88
2018-02-03T00:27:31.325Z,783.89
2018-02-03T00:27:35.226Z,783.85
2018-02-03T00:27:39.120Z,783.88
2018-02-03T00:27:42.910Z,783.87
2018-02-03T00:27:46.803Z,783.88
2018-02-03T00:27:50.864Z,783.88
2018-02-03T00:27:54.865Z,783.83
2018-02-03T00:27:58.757Z,783.86
2018-02-03T00:28:02.930Z,783.86
2018-02-03T00:28:06.929Z,783.87
2018-02-03T00:28:10.935Z,783.85
2018-02-03T00:28:14.931Z,783.86
2018-02-03T00:28:19.144Z,783.87
2018-02-03T00:28:23.144Z,783.84
2018-02-03T00:28:27.042Z,783.85
2018-02-03T00:28:30.928Z,783.86
2018-02-03T00:28:34.821Z,783.84
2018-02-03T00:28:38.612Z,783.88
2018-02-03T00:28:42.299Z,783.88
2018-02-03T00:28:46.305Z,783.87
2018-02-03T00:28:50.090Z,783.88
2018-02-03T00:28:53.880Z,783.88
2018-02-03T00:28:57.777Z,783.86
2018-02-03T00:29:01.886Z,783.85
2018-02-03T00:29:06.005Z,783.84
2018-02-03T00:29:10.087Z,783.87
2018-02-03T00:29:14.089Z,783.83
2018-02-03T00:29:18.088Z,783.86
2018-02-03T00:29:22.198Z,783.89
2018-02-03T00:29:26.089Z,783.85
2018-02-03T00:29:30.092Z,783.87
2018-02-03T00:29:34.200Z,783.87
2018-02-03T00:29:37.986Z,783.87
2018-02-03T00:29:41.774Z,783.86
2018-02-03T00:29:45.561Z,783.85
2018-02-03T00:29:49.460Z,783.88
2018-02-03T00:29:53.349Z,783.91
2018-02-03T00:29:57.247Z,783.91
2018-02-03T00:30:01.041Z,783.88
2018-02-03T00:30:05.081Z,783.89
2018-02-03T00:30:09.080Z,783.88
2018-02-03T00:30:13.084Z,783.88
2018-02-03T00:30:17.407Z,783.87
2018-02-03T00:30:21.516Z,783.9
2018-02-03T00:30:25.518Z,783.9
2018-02-03T00:30:29.408Z,783.9
2018-02-03T00:30:33.520Z,783.9
2018-02-03T00:30:37.633Z,783.9
2018-02-03T00:30:41.632Z,783.92
2018-02-03T00:30:45.629Z,783.9
2018-02-03T00:30:49.525Z,783.89
2018-02-03T00:30:53.420Z,783.94
2018-02-03T00:30:57.792Z,783.93
2018-02-03T00:31:01.684Z,783.89
2018-02-03T00:31:05.782Z,783.92
2018-02-03T00:31:09.466Z,783.85
2018-02-03T00:31:13.461Z,783.9
2018-02-03T00:31:17.357Z,783.87
2018-02-03T00:31:21.572Z,783.89
2018-02-03T00:31:25.620Z,783.91
2018-02-03T00:31:29.409Z,783.91
2018-02-03T00:31:33.310Z,783.89
2018-02-03T00:31:37.524Z,783.89
2018-02-03T00:31:41.529Z,783.89
2018-02-03T00:31:45.318Z,783.89
2018-02-03T00:31:49.317Z,783.91
2018-02-03T00:31:53.214Z,783.89
2018-02-03T00:31:57.002Z,783.88
2018-02-03T00:32:00.893Z,783.87
2018-02-03T00:32:04.896Z,783.9
2018-02-03T00:32:08.803Z,783.9
2018-02-03T00:32:12.917Z,783.89
2018-02-03T00:32:16.911Z,783.87
2018-02-03T00:32:20.955Z,783.86
2018-02-03T00:32:24.955Z,783.86
2018-02-03T00:32:28.849Z,783.89
2018-02-03T00:32:32.850Z,783.89
2018-02-03T00:32:36.636Z,783.86
2018-02-03T00:32:40.528Z,783.89
2018-02-03T00:32:44.413Z,783.9
2018-02-03T00:32:48.304Z,783.89
2018-02-03T00:32:52.197Z,783.89
2018-02-03T00:32:56.198Z,783.89
2018-02-03T00:32:59.986Z,783.89
2018-02-03T00:33:03.884Z,783.9
2018-02-03T00:33:07.573Z,783.91
2018-02-03T00:33:11.570Z,783.89
2018-02-03T00:33:15.465Z,783.91
2018-02-03T00:33:19.571Z,783.92
2018-02-03T00:33:23.357Z,783.89
2018-02-03T00:33:27.358Z,783.92
2018-02-03T00:33:31.149Z,783.88
2018-02-03T00:33:34.937Z,783.9
2018-02-03T00:33:38.934Z,783.93
2018-02-03T00:33:42.829Z,783.93
2018-02-03T00:33:46.722Z,783.91
2018-02-03T00:33:50.828Z,783.9
2018-02-03T00:33:54.935Z,783.93
2018-02-03T00:33:59.144Z,783.9
2018-02-03T00:34:03.065Z,783.92
2018-02-03T00:34:07.170Z,783.94
2018-02-03T00:34:11.063Z,783.93
2018-02-03T00:34:14.968Z,783.95
2018-02-03T00:34:18.972Z,783.94
2018-02-03T00:34:22.874Z,783.9
2018-02-03T00:34:26.767Z,783.91
2018-02-03T00:34:30.558Z,783.93
2018-02-03T00:34:34.555Z,783.91
2018-02-03T00:34:38.445Z,783.92
2018-02-03T00:34:42.443Z,783.92
2018-02-03T00:34:46.341Z,783.93
2018-02-03T00:34:50.244Z,783.94
2018-02-03T00:34:54.246Z,783.94
2018-02-03T00:34:58.040Z,783.92
2018-02-03T00:35:02.144Z,783.9
2018-02-03T00:35:05.932Z,783.93
2018-02-03T00:35:09.831Z,783.93
2018-02-03T00:35:13.725Z,783.95
2018-02-03T00:35:17.515Z,783.94
2018-02-03T00:35:21.621Z,783.94
2018-02-03T00:35:25.524Z,783.94
2018-02-03T00:35:29.315Z,783.94
2018-02-03T00:35:33.422Z,783.94
2018-02-03T00:35:37.423Z,783.94
2018-02-03T00:35:41.212Z,783.95
2018-02-03T00:35:45.002Z,783.99
2018-02-03T00:35:49.007Z,783.98
2018-02-03T00:35:53.226Z,783.97
2018-02-03T00:35:57.150Z,783.97
2018-02-03T00:36:01.351Z,783.92
2018-02-03T00:36:05.283Z,783.99
2018-02-03T00:36:09.075Z,783.96
2018-02-03T00:36:12.867Z,784
2018-02-03T00:36:16.976Z,783.95
2018-02-03T00:36:20.763Z,783.99
2018-02-03T00:36:24.449Z,783.99
2018-02-03T00:36:28.344Z,783.96
2018-02-03T00:36:32.247Z,783.99
2018-02-03T00:36:36.248Z,783.98
2018-02-03T00:36:39.930Z,783.99
2018-02-03T00:36:43.817Z,783.98
2018-02-03T00:36:47.819Z,783.97
2018-02-03T00:36:51.818Z,783.96
2018-02-03T00:36:55.821Z,783.98
2018-02-03T00:36:59.823Z,783.99
2018-02-03T00:37:04.066Z,783.99
2018-02-03T00:37:07.746Z,783.99
2018-02-03T00:37:11.638Z,784.01
2018-02-03T00:37:15.537Z,784.01
2018-02-03T00:37:19.540Z,783.98
2018-02-03T00:37:23.331Z,784
2018-02-03T00:37:27.127Z,784.01
2018-02-03T00:37:30.922Z,784.01
2018-02-03T00:37:34.822Z,784.04
2018-02-03T00:37:38.819Z,784.02
2018-02-03T00:37:42.820Z,784.01
2018-02-03T00:37:46.605Z,784.01
2018-02-03T00:37:50.818Z,784.03
2018-02-03T00:37:54.714Z,784.04
2018-02-03T00:37:58.821Z,784.05
2018-02-03T00:38:02.826Z,784.04
2018-02-03T00:38:06.826Z,784.02
2018-02-03T00:38:10.727Z,784.06
2018-02-03T00:38:14.623Z,784.04
2018-02-03T00:38:18.524Z,784
2018-02-03T00:38:22.522Z,784.04
2018-02-03T00:38:26.316Z,784.04
2018-02-03T00:38:30.316Z,784.04
2018-02-03T00:38:34.317Z,784.03
2018-02-03T00:38:38.324Z,784.05
2018-02-03T00:38:42.425Z,784.04
2018-02-03T00:38:46.323Z,784.08
2018-02-03T00:38:50.426Z,784.05
2018-02-03T00:38:54.217Z,784.01
2018-02-03T00:38:58.326Z,784.05
2018-02-03T00:39:02.564Z,784.03
2018-02-03T00:39:06.456Z,784.02
2018-02-03T00:39:10.248Z,784.08
2018-02-03T00:39:14.038Z,784.07
2018-02-03T00:39:18.049Z,784.08
2018-02-03T00:39:21.840Z,784.1
2018-02-03T00:39:25.624Z,784.09
2018-02-03T00:39:29.522Z,784.07
2018-02-03T00:39:33.631Z,784.09
2018-02-03T00:39:37.633Z,784.11
2018-02-03T00:39:41.531Z,784.1
2018-02-03T00:39:45.420Z,784.05
2018-02-03T00:39:49.315Z,784.11
2018-02-03T00:39:53.222Z,784.05
2018-02-03T00:39:57.023Z,784.04
2018-02-03T00:40:00.918Z,784.07
2018-02-03T00:40:04.919Z,784.04
2018-02-03T00:40:08.708Z,784.13
2018-02-03T00:40:12.815Z,784.09
2018-02-03T00:40:16.709Z,784.09
2018-02-03T00:40:20.503Z,784.11
2018-02-03T00:40:24.497Z,784.13
2018-02-03T00:40:28.341Z,784.1
2018-02-03T00:40:32.454Z,784.13
2018-02-03T00:40:36.247Z,784.13
2018-02-03T00:40:40.142Z,784.08
2018-02-03T00:40:44.143Z,784.03
2018-02-03T00:40:47.827Z,784.04
2018-02-03T00:40:51.928Z,784.12
2018-02-03T00:40:55.831Z,784.09
2018-02-03T00:40:59.727Z,784.1
2018-02-03T00:41:03.936Z,784.14
2018-02-03T00:41:07.828Z,784.1
2018-02-03T00:41:11.611Z,784.09
2018-02-03T00:41:15.396Z,784.1
2018-02-03T00:41:19.401Z,784.13
2018-02-03T00:41:23.513Z,784.13
2018-02-03T00:41:27.515Z,784.1
2018-02-03T00:41:31.511Z,784.12
2018-02-03T00:41:35.411Z,784.12
2018-02-03T00:41:39.406Z,784.14
2018-02-03T00:41:43.104Z,784.13
2018-02-03T00:41:47.002Z,784.12
2018-02-03T00:41:51.002Z,784.13
2018-02-03T00:41:54.790Z,784.15
2018-02-03T00:41:58.788Z,784.13
2018-02-03T00:42:02.685Z,784.14
2018-02-03T00:42:06.898Z,784.13
2018-02-03T00:42:10.895Z,784.11
2018-02-03T00:42:14.684Z,784.11
2018-02-03T00:42:18.689Z,784.15
2018-02-03T00:42:22.372Z,784.14
2018-02-03T00:42:26.373Z,784.1
2018-02-03T00:42:30.157Z,784.14
2018-02-03T00:42:34.276Z,784.1
2018-02-03T00:42:38.273Z,784.12
2018-02-03T00:42:42.168Z,784.11
2018-02-03T00:42:46.276Z,784.12
2018-02-03T00:42:50.174Z,784.1
2018-02-03T00:42:54.173Z,784.11
2018-02-03T00:42:58.168Z,784.13
2018-02-03T00:43:02.626Z,784.12
2018-02-03T00:43:06.515Z,784.12
2018-02-03T00:43:10.515Z,784.12
2018-02-03T00:43:14.508Z,784.08
2018-02-03T00:43:18.400Z,784.06
2018-02-03T00:43:22.296Z,784.06
2018-02-03T00:43:26.091Z,784.08
2018-02-03T00:43:29.986Z,784.05
2018-02-03T00:43:33.882Z,784.08
2018-02-03T00:43:37.777Z,784.05
2018-02-03T00:43:41.773Z,784.05
2018-02-03T00:43:45.672Z,784.04
2018-02-03T00:43:49.565Z,784.09
2018-02-03T00:43:53.577Z,784.09
2018-02-03T00:43:57.568Z,784.12
2018-02-03T00:44:01.250Z,784.11
2018-02-03T00:44:05.446Z,784.08
2018-02-03T00:44:09.445Z,784.09
2018-02-03T00:44:13.453Z,784.09
2018-02-03T00:44:17.452Z,784.08
2018-02-03T00:44:21.353Z,784.09
2018-02-03T00:44:25.622Z,784.08
2018-02-03T00:44:29.513Z,784.08
2018-02-03T00:44:33.729Z,784.05
2018-02-03T00:44:37.513Z,784.03
2018-02-03T00:44:41.515Z,784.03
2018-02-03T00:44:45.409Z,784.03
2018-02-03T00:44:49.510Z,784.04
2018-02-03T00:44:53.402Z,784.07
2018-02-03T00:44:57.402Z,784.09
2018-02-03T00:45:01.522Z,784.05
2018-02-03T00:45:05.525Z,784.06
2018-02-03T00:45:09.214Z,784.08
2018-02-03T00:45:13.217Z,784.07
2018-02-03T00:45:17.218Z,784.05
2018-02-03T00:45:21.112Z,784.03
2018-02-03T00:45:25.112Z,784.02
2018-02-03T00:45:28.794Z,784.06
2018-02-03T00:45:32.793Z,784
2018-02-03T00:45:36.723Z,784.07
2018-02-03T00:45:40.618Z,784.06
2018-02-03T00:45:44.514Z,784.07
2018-02-03T00:45:48.404Z,784.08
2018-02-03T00:45:52.189Z,784.05
2018-02-03T00:45:56.089Z,784.06
2018-02-03T00:46:00.084Z,784.03
2018-02-03T00:46:04.085Z,784.04
2018-02-03T00:46:08.087Z,784.06
2018-02-03T00:46:12.189Z,784.05
2018-02-03T00:46:16.082Z,784.07
2018-02-03T00:46:20.191Z,784.04
2018-02-03T00:46:23.976Z,784.09
2018-02-03T00:46:27.869Z,784.06
2018-02-03T00:46:31.757Z,784.06
2018-02-03T00:46:35.758Z,784.06
2018-02-03T00:46:39.867Z,784.03
2018-02-03T00:46:43.963Z,784.06
2018-02-03T00:46:47.857Z,784.08
2018-02-03T00:46:51.853Z,784.03
2018-02-03T00:46:55.858Z,784.05
2018-02-03T00:46:59.537Z,784.06
2018-02-03T00:47:03.537Z,784.03
2018-02-03T00:47:07.536Z,784.07
2018-02-03T00:47:11.327Z,784.04
2018-02-03T00:47:15.328Z,784.03
2018-02-03T00:47:19.008Z,784.04
2018-02-03T00:47:22.797Z,784.04
2018-02-03T00:47:26.793Z,784.04
2018-02-03T00:47:30.792Z,784.05
2018-02-03T00:47:34.794Z,784.05
2018-02-03T00:47:38.793Z,784.01
2018-02-03T00:47:42.799Z,784.06
2018-02-03T00:47:46.697Z,784.02
2018-02-03T00:47:50.481Z,784.05
2018-02-03T00:47:54.266Z,784.04
2018-02-03T00:47:58.480Z,784.06
2018-02-03T00:48:02.581Z,784.06
2018-02-03T00:48:06.477Z,784.03
2018-02-03T00:48:10.581Z,784.03
2018-02-03T00:48:14.584Z,784.04
2018-02-03T00:48:18.692Z,784.05
2018-02-03T00:48:22.586Z,784.04
2018-02-03T00:48:26.272Z,784.05
2018-02-03T00:48:30.168Z,784.05
2018-02-03T00:48:34.270Z,784.05
2018-02-03T00:48:38.169Z,784.04
2018-02-03T00:48:42.278Z,784.03
2018-02-03T00:48:46.171Z,784.06
2018-02-03T00:48:50.275Z,784.05
2018-02-03T00:48:54.165Z,784.05
2018-02-03T00:48:58.273Z,783.98
2018-02-03T00:49:02.274Z,784
2018-02-03T00:49:06.066Z,783.99
2018-02-03T00:49:09.959Z,783.98
2018-02-03T00:49:13.853Z,783.98
2018-02-03T00:49:17.854Z,783.98
2018-02-03T00:49:22.066Z,783.97
2018-02-03T00:49:26.064Z,784.03